Time;durP1;ratioP1;P1;durP2;ratioP2;P2;SDS_P1;SDS_P2;PMS_P1;PMS_P2;Temp;Humidity;BMP_temperature;BMP_pressure;BME280_temperature;BME280_humidity;BME280_pressure;Samples;Min_cycle;Max_cycle;Signal;HPM_P1;HPM_P2
2021/08/15 00:01:06;;;;;;;7.40;6.70;;;;;;;16.92;75.51;100460.47;6139266;23;20328;-75
2021/08/15 00:03:32;;;;;;;6.45;5.93;;;;;;;16.89;75.30;100461.09;6164684;23;20016;-76
2021/08/15 00:05:58;;;;;;;10.52;6.30;;;;;;;16.89;75.40;100463.88;6118040;23;20013;-76
2021/08/15 00:08:23;;;;;;;7.25;5.72;;;;;;;16.84;75.54;100450.13;6142515;23;20013;-73
2021/08/15 00:10:49;;;;;;;8.80;6.35;;;;;;;16.86;75.56;100456.13;6116766;23;20009;-74
2021/08/15 00:13:15;;;;;;;5.00;4.60;;;;;;;16.95;75.38;100477.56;6116421;23;20021;-73
2021/08/15 00:15:40;;;;;;;7.38;6.20;;;;;;;16.91;75.54;100464.38;6164432;23;20317;-75
2021/08/15 00:18:06;;;;;;;6.32;5.72;;;;;;;16.86;75.48;100458.91;6140181;23;20040;-76
2021/08/15 00:20:45;;;;;;;10.15;6.82;;;;;;;16.83;75.73;100451.22;6142296;23;20009;-76
2021/08/15 00:23:11;;;;;;;7.03;5.43;;;;;;;16.92;75.61;100454.13;6136427;23;19997;-74
2021/08/15 00:25:36;;;;;;;4.43;4.03;;;;;;;16.93;75.20;100456.56;6113203;23;20028;-73
2021/08/15 00:28:05;;;;;;;3.67;3.38;;;;;;;17.01;75.36;100463.34;6162112;23;20009;-75
2021/08/15 00:30:56;;;;;;;3.08;2.88;;;;;;;17.08;75.33;100452.69;6164117;23;20096;-75
2021/08/15 00:37:33;;;;;;;4.93;4.53;;;;;;;17.14;74.75;100447.84;6166616;23;20029;-74
2021/08/15 01:20:01;;;;;;;6.88;6.35;;;;;;;16.84;75.06;100416.16;6196685;23;20152;-75
2021/08/15 01:29:03;;;;;;;7.93;7.00;;;;;;;16.46;75.94;100403.38;6045638;23;20366;-73
2021/08/15 01:31:35;;;;;;;12.85;7.10;;;;;;;16.37;76.25;100397.78;6041961;23;20157;-73
2021/08/15 01:34:01;;;;;;;7.55;6.80;;;;;;;16.37;76.27;100405.25;6090232;23;20071;-74
2021/08/15 01:36:32;;;;;;;10.35;6.72;;;;;;;16.33;76.50;100409.72;6166513;23;20351;-76
2021/08/15 01:46:06;;;;;;;6.10;5.68;;;;;;;16.12;77.23;100404.59;6192640;23;20348;-74
2021/08/15 01:49:03;;;;;;;4.97;4.72;;;;;;;16.07;76.89;100404.66;6164944;23;20000;-77
2021/08/15 01:52:30;;;;;;;;;;;;;;;;;;;;;
2021/08/15 02:05:19;;;;;;;3.13;2.92;;;;;;;15.84;76.35;100393.50;6131530;23;20017;-74
2021/08/15 02:11:31;;;;;;;3.65;3.45;;;;;;;15.68;76.64;100364.50;6102464;23;20097;-74
2021/08/15 02:17:18;;;;;;;4.82;4.50;;;;;;;15.91;76.64;100384.00;6100086;23;20633;-75
2021/08/15 02:27:20;;;;;;;;;;;;;;;;;;;;;
2021/08/15 02:40:31;;;;;;;3.25;2.90;;;;;;;16.70;76.03;100360.94;6089714;23;20100;-75
2021/08/15 02:57:52;;;;;;;5.55;3.40;;;;;;;17.01;75.15;100325.22;6191778;23;20023;-76
2021/08/15 03:03:39;;;;;;;7.97;5.70;;;;;;;16.90;75.02;100297.00;6195378;23;20151;-74
2021/08/15 03:13:48;;;;;;;;;;;;;;;;;;;;;
2021/08/15 03:20:39;;;;;;;4.78;4.47;;;;;;;17.03;75.31;100264.13;5877171;24;20073;-76
2021/08/15 03:26:43;;;;;;;;;;;;;;;;;;;;;
2021/08/15 03:32:44;;;;;;;5.90;5.60;;;;;;;17.17;75.17;100273.19;5884946;24;20091;-77
2021/08/15 03:38:54;;;;;;;5.47;5.18;;;;;;;17.16;74.96;100263.25;5858024;24;20018;-76
2021/08/15 03:41:56;;;;;;;;;;;;;;;;;;;;;
2021/08/15 03:52:07;;;;;;;;;;;;;;;;;;;;;
2021/08/15 03:55:42;;;;;;;;;;;;;;;;;;;;;
2021/08/15 03:59:27;;;;;;;;;;;;;;;;;;;;;
2021/08/15 04:17:39;;;;;;;;;;;;;;;;;;;;;
2021/08/15 04:31:23;;;;;;;2.83;2.70;;;;;;;17.74;75.45;100255.13;6013562;23;20442;-75
2021/08/15 04:37:45;;;;;;;;;;;;;;;;;;;;;
2021/08/15 04:51:15;;;;;;;3.67;3.10;;;;;;;18.00;74.74;100248.91;6074295;23;20030;-75
2021/08/15 04:53:57;;;;;;;3.60;3.40;;;;;;;17.94;74.21;100229.69;6075149;23;20018;-76
2021/08/15 04:57:12;;;;;;;3.67;3.47;;;;;;;18.01;74.58;100245.03;6074311;23;20003;-75
2021/08/15 04:59:38;;;;;;;3.47;3.28;;;;;;;17.99;74.01;100241.75;6047537;23;20007;-74
2021/08/15 05:02:04;;;;;;;3.03;2.83;;;;;;;17.99;74.62;100245.34;6106179;23;20316;-75
2021/08/15 05:04:30;;;;;;;4.63;4.32;;;;;;;18.03;74.45;100248.28;6116320;23;20016;-74
2021/08/15 05:06:56;;;;;;;3.67;3.47;;;;;;;18.04;74.58;100247.16;6116129;23;20020;-74
2021/08/15 05:09:22;;;;;;;5.03;4.75;;;;;;;18.01;74.64;100243.06;6162006;23;20005;-73
2021/08/15 05:11:48;;;;;;;3.80;3.60;;;;;;;18.00;74.79;100243.38;6112485;23;20047;-73
2021/08/15 05:14:20;;;;;;;3.08;2.88;;;;;;;17.96;74.94;100238.50;6114230;23;20016;-74
2021/08/15 05:17:06;;;;;;;4.88;3.53;;;;;;;17.99;75.00;100230.69;6142019;23;20008;-76
2021/08/15 05:19:36;;;;;;;3.70;3.50;;;;;;;18.00;74.98;100244.19;6164553;23;20031;-74
2021/08/15 05:22:02;;;;;;;4.50;2.90;;;;;;;17.95;75.20;100236.84;6144714;23;20016;-76
2021/08/15 05:24:28;;;;;;;3.97;3.67;;;;;;;17.94;75.28;100246.28;6164467;23;19993;-75
2021/08/15 05:26:55;;;;;;;2.95;2.75;;;;;;;17.91;74.93;100235.84;6138575;23;20016;-74
2021/08/15 05:29:25;;;;;;;4.00;3.75;;;;;;;17.95;75.16;100241.59;6158712;23;20017;-74
2021/08/15 05:31:51;;;;;;;4.10;3.45;;;;;;;17.89;75.34;100238.09;6163526;23;20013;-75
2021/08/15 05:34:17;;;;;;;3.72;3.55;;;;;;;17.92;75.78;100237.50;6164947;23;20005;-74
2021/08/15 05:36:45;;;;;;;3.28;2.80;;;;;;;17.91;76.02;100235.06;6115408;23;20363;-74
2021/08/15 05:39:19;;;;;;;4.13;3.92;;;;;;;17.99;75.98;100237.03;6138119;23;20013;-76
2021/08/15 05:41:45;;;;;;;3.42;3.25;;;;;;;17.96;75.54;100234.91;6138381;23;20017;-75
2021/08/15 05:46:52;;;;;;;3.30;3.10;;;;;;;17.85;76.15;100226.06;6149478;23;20021;-75
2021/08/15 05:52:39;;;;;;;3.40;3.20;;;;;;;17.95;76.26;100231.31;6192781;23;20400;-75
2021/08/15 05:55:41;;;;;;;5.20;4.80;;;;;;;17.98;76.33;100232.63;6192924;23;20027;-74
2021/08/15 05:58:11;;;;;;;;;;;;;;;18.03;76.09;100242.75;6193150;23;20036;-76
2021/08/15 06:00:38;;;;;;;;;;;;;;;18.04;76.75;100244.38;6166529;23;19904;-75
2021/08/15 06:03:07;;;;;;;3.42;3.22;;;;;;;17.93;76.54;100236.38;6141431;23;19892;-76
2021/08/15 06:05:32;;;;;;;3.33;3.20;;;;;;;17.96;76.72;100232.16;6163091;23;19988;-80
2021/08/15 06:07:59;;;;;;;2.55;2.35;;;;;;;18.03;77.16;100228.91;6163252;23;20089;-76
2021/08/15 06:20:30;;;;;;;2.92;2.80;;;;;;;18.16;77.38;100244.56;6160404;23;20016;-73
2021/08/15 06:22:56;;;;;;;2.88;2.78;;;;;;;17.98;77.08;100206.94;6161025;23;20013;-75
2021/08/15 06:25:21;;;;;;;2.60;2.40;;;;;;;18.11;77.09;100222.59;6134810;23;20006;-74
2021/08/15 06:28:56;;;;;;;;;;;;;;;;;;;;;
2021/08/15 06:31:32;;;;;;;2.20;2.10;;;;;;;18.36;76.60;100222.97;6134000;23;20061;-73
2021/08/15 06:34:12;;;;;;;;;;;;;;;18.52;76.38;100242.69;6111990;23;20037;-75
2021/08/15 06:37:30;;;;;;;4.43;1.42;;;;;;;18.44;76.93;100230.44;6137272;23;19904;-76
2021/08/15 06:41:08;;;;;;;;;;;;;;;;;;;;;
2021/08/15 06:51:58;;;;;;;0.70;0.70;;;;;;;18.33;77.07;100209.78;5958416;23;20012;-75
2021/08/15 06:54:54;;;;;;;0.38;0.38;;;;;;;18.34;77.01;100220.53;5992766;23;20004;-75
2021/08/15 06:57:30;;;;;;;;;;;;;;;;;;;;;
2021/08/15 07:00:34;;;;;;;1.00;1.00;;;;;;;18.40;77.50;100218.38;5966229;23;20055;-75
2021/08/15 07:03:18;;;;;;;0.50;0.50;;;;;;;18.47;77.86;100229.78;6005404;23;20509;-75
2021/08/15 07:05:56;;;;;;;1.00;1.00;;;;;;;18.53;77.67;100227.69;6103539;23;20002;-75
2021/08/15 07:08:55;;;;;;;0.95;0.95;;;;;;;18.74;77.56;100238.97;6107196;23;20010;-74
2021/08/15 07:11:38;;;;;;;0.90;0.90;;;;;;;18.74;77.94;100234.22;6105542;23;20413;-74
2021/08/15 07:15:00;;;;;;;0.60;0.60;;;;;;;18.76;77.50;100236.66;6078903;23;20877;-76
2021/08/15 07:21:58;;;;;;;0.50;0.50;;;;;;;18.95;77.99;100239.13;6188725;23;20025;-75
2021/08/15 07:45:31;;;;;;;;;;;;;;;;;;;;;
2021/08/15 07:47:57;;;;;;;0.20;0.10;;;;;;;20.46;71.49;100216.84;6071480;23;20379;-70
2021/08/15 07:50:23;;;;;;;0.17;0.10;;;;;;;20.38;71.26;100227.72;6086609;23;20016;-73
2021/08/15 07:56:10;;;;;;;0.03;0.03;;;;;;;20.39;71.15;100209.88;6157912;23;20013;-75
2021/08/15 07:58:39;;;;;;;0.05;0.00;;;;;;;20.63;70.45;100211.16;6166574;23;20009;-74
2021/08/15 08:01:05;;;;;;;0.20;0.10;;;;;;;20.80;69.16;100215.00;6190721;23;19997;-72
2021/08/15 08:03:30;;;;;;;0.00;0.00;;;;;;;20.87;68.89;100224.41;6138565;23;20013;-71
2021/08/15 08:05:56;;;;;;;0.00;0.00;;;;;;;20.94;68.42;100215.53;6190755;23;20013;-71
2021/08/15 08:08:21;;;;;;;0.20;0.10;;;;;;;21.14;67.49;100219.38;6122449;23;20013;-73
2021/08/15 08:10:49;;;;;;;0.13;0.00;;;;;;;21.22;65.65;100214.91;6195360;23;20004;-71
2021/08/15 08:13:15;;;;;;;0.30;0.10;;;;;;;21.28;65.57;100214.34;6172416;23;20000;-74
2021/08/15 08:15:42;;;;;;;0.10;0.05;;;;;;;21.28;65.18;100222.69;6165575;23;20004;-77
2021/08/15 08:18:08;;;;;;;0.32;0.00;;;;;;;21.21;65.10;100208.53;6142692;23;20009;-74
2021/08/15 08:20:37;;;;;;;0.98;0.10;;;;;;;21.23;64.60;100220.13;6190367;23;19996;-72
2021/08/15 08:23:07;;;;;;;0.00;0.00;;;;;;;21.18;64.18;100212.00;6165449;23;20008;-72
2021/08/15 08:25:33;;;;;;;0.00;0.00;;;;;;;21.43;64.79;100210.06;6141768;23;19997;-74
2021/08/15 08:27:59;;;;;;;0.00;0.00;;;;;;;21.85;63.69;100208.31;6164742;23;20012;-74
2021/08/15 08:30:24;;;;;;;0.00;0.00;;;;;;;22.13;61.85;100209.22;6190534;23;20001;-73
2021/08/15 08:32:50;;;;;;;0.00;0.00;;;;;;;22.21;60.50;100198.28;6165413;23;20009;-74
2021/08/15 08:35:16;;;;;;;0.10;0.10;;;;;;;22.28;60.13;100209.66;6162766;23;20016;-72
2021/08/15 08:37:44;;;;;;;0.25;0.25;;;;;;;22.36;59.51;100217.09;6164793;23;20033;-75
2021/08/15 08:40:12;;;;;;;0.00;0.00;;;;;;;22.41;58.93;100211.28;6164138;23;20008;-74
2021/08/15 08:42:39;;;;;;;0.10;0.00;;;;;;;22.39;57.98;100227.53;6137950;23;20016;-75
2021/08/15 08:45:05;;;;;;;0.60;0.10;;;;;;;22.12;56.40;100224.31;6141111;23;20016;-74
2021/08/15 08:47:33;;;;;;;0.10;0.10;;;;;;;22.00;57.25;100213.16;6163549;23;20000;-74
2021/08/15 08:49:59;;;;;;;1.98;0.98;;;;;;;22.24;57.28;100205.94;6164793;23;20001;-73
2021/08/15 08:52:29;;;;;;;0.10;0.10;;;;;;;22.54;56.15;100225.19;6189025;23;20388;-74
2021/08/15 08:54:56;;;;;;;0.47;0.22;;;;;;;22.51;55.21;100220.34;6161754;23;20491;-72
2021/08/15 08:57:21;;;;;;;0.82;0.20;;;;;;;22.47;54.77;100218.25;6188457;23;20005;-73
2021/08/15 08:59:47;;;;;;;1.30;0.20;;;;;;;22.45;54.96;100226.13;6163665;23;20063;-73
2021/08/15 09:02:12;;;;;;;1.50;0.30;;;;;;;22.51;54.54;100220.34;6187813;23;20005;-72
2021/08/15 09:04:38;;;;;;;1.40;0.50;;;;;;;22.62;55.10;100215.91;6190039;23;20009;-73
2021/08/15 09:07:15;;;;;;;0.75;0.40;;;;;;;22.96;55.03;100222.03;6188450;23;20084;-73
2021/08/15 09:10:02;;;;;;;2.30;0.80;;;;;;;22.99;54.04;100226.91;6187829;23;20008;-73
2021/08/15 09:12:38;;;;;;;0.43;0.20;;;;;;;22.80;54.42;100225.56;6187386;23;20031;-72
2021/08/15 09:15:14;;;;;;;0.60;0.30;;;;;;;22.91;54.66;100216.69;6189836;23;20034;-71
2021/08/15 09:17:41;;;;;;;4.00;0.47;;;;;;;23.01;54.25;100216.19;6136876;23;20008;-73
2021/08/15 09:20:08;;;;;;;0.52;0.30;;;;;;;23.21;53.44;100221.97;6187390;23;20059;-73
2021/08/15 09:22:35;;;;;;;1.48;0.43;;;;;;;23.16;53.06;100221.03;6189022;23;20009;-73
2021/08/15 09:25:03;;;;;;;1.33;0.30;;;;;;;23.13;53.67;100220.94;6189769;23;20009;-73
2021/08/15 09:27:32;;;;;;;4.20;0.70;;;;;;;23.25;52.73;100211.72;6163253;23;20011;-74
2021/08/15 09:30:12;;;;;;;1.55;0.57;;;;;;;23.73;52.85;100212.56;6160074;23;20039;-73
2021/08/15 09:33:01;;;;;;;2.70;0.40;;;;;;;24.35;51.10;100212.03;6188441;23;20446;-75
2021/08/15 09:35:30;;;;;;;0.68;0.50;;;;;;;24.68;50.37;100219.97;6187977;23;20008;-75
2021/08/15 09:38:08;;;;;;;1.15;0.80;;;;;;;24.83;48.68;100215.47;6185565;23;20001;-74
2021/08/15 09:40:35;;;;;;;1.30;0.65;;;;;;;24.47;48.57;100216.66;6190986;23;20001;-75
2021/08/15 09:43:02;;;;;;;0.63;0.63;;;;;;;23.93;48.84;100213.44;6190361;23;20091;-74
2021/08/15 09:45:36;;;;;;;0.93;0.80;;;;;;;23.51;49.96;100206.41;6160276;23;20044;-75
2021/08/15 09:48:24;;;;;;;0.90;0.80;;;;;;;23.16;50.56;100221.03;6190093;23;20027;-75
2021/08/15 09:51:10;;;;;;;1.00;0.90;;;;;;;23.14;52.28;100223.38;6160613;23;20092;-75
2021/08/15 09:53:43;;;;;;;1.45;0.80;;;;;;;24.18;51.85;100213.22;6162636;23;20093;-75
2021/08/15 09:56:09;;;;;;;2.40;0.82;;;;;;;25.54;48.56;100215.25;6189580;23;20316;-75
2021/08/15 09:58:35;;;;;;;4.28;1.23;;;;;;;25.73;44.64;100216.34;6157995;23;20005;-75
2021/08/15 10:01:06;;;;;;;2.13;1.10;;;;;;;25.33;44.34;100215.66;6185660;23;19993;-75
2021/08/15 10:03:33;;;;;;;1.42;1.13;;;;;;;24.65;44.79;100226.28;6189232;23;20004;-75
2021/08/15 10:06:00;;;;;;;1.48;1.10;;;;;;;23.88;45.95;100219.31;6188871;23;20076;-75
2021/08/15 10:08:25;;;;;;;2.15;1.40;;;;;;;23.41;47.98;100220.91;6189429;23;20013;-76
2021/08/15 10:10:55;;;;;;;0.77;0.77;;;;;;;23.99;48.32;100211.19;6185766;23;20404;-75
2021/08/15 10:13:20;;;;;;;4.45;1.77;;;;;;;24.29;44.94;100207.91;6161898;23;20031;-75
2021/08/15 10:16:00;;;;;;;0.93;0.65;;;;;;;24.54;46.41;100214.81;6187199;23;20475;-76
2021/08/15 10:18:28;;;;;;;1.17;0.80;;;;;;;25.25;45.23;100219.47;6189518;23;20000;-75
2021/08/15 10:21:11;;;;;;;1.30;1.20;;;;;;;26.39;40.86;100210.59;6161973;23;20092;-75
2021/08/15 10:23:40;;;;;;;1.30;1.02;;;;;;;26.47;39.98;100215.91;6189201;23;20009;-75
2021/08/15 10:26:25;;;;;;;1.60;1.50;;;;;;;26.82;37.67;100213.94;6189032;23;20143;-75
2021/08/15 10:28:54;;;;;;;1.70;1.60;;;;;;;26.29;37.77;100204.44;6184934;23;20029;-74
2021/08/15 10:31:20;;;;;;;1.35;1.20;;;;;;;25.80;37.93;100205.25;6188321;23;20005;-76
2021/08/15 10:33:53;;;;;;;2.45;1.60;;;;;;;25.20;38.61;100206.63;6184082;23;20028;-74
2021/08/15 10:36:21;;;;;;;3.65;1.40;;;;;;;25.44;40.38;100210.25;6185301;23;20004;-75
2021/08/15 10:38:49;;;;;;;5.32;1.70;;;;;;;26.51;38.48;100209.53;6187264;23;20019;-75
2021/08/15 10:41:46;;;;;;;3.38;1.52;;;;;;;27.08;36.69;100201.81;6187726;23;20008;-76
2021/08/15 10:44:13;;;;;;;5.35;2.08;;;;;;;27.66;36.82;100194.78;6187501;23;20000;-75
2021/08/15 10:47:12;;;;;;;3.85;1.10;;;;;;;29.05;34.25;100204.44;6161832;23;20432;-75
2021/08/15 10:49:48;;;;;;;2.25;1.58;;;;;;;29.65;31.55;100193.69;6189912;23;20009;-73
2021/08/15 10:52:31;;;;;;;1.65;1.55;;;;;;;29.19;31.86;100197.22;6185674;23;20439;-75
2021/08/15 10:55:00;;;;;;;4.85;1.45;;;;;;;28.63;32.46;100211.53;6188646;23;19985;-75
2021/08/15 10:57:36;;;;;;;1.67;1.25;;;;;;;28.46;33.50;100200.97;6187230;23;20005;-76
2021/08/15 11:00:01;;;;;;;;;;;;;;;28.14;33.05;100190.34;6140857;23;20005;-76
2021/08/15 11:02:33;;;;;;;5.13;2.22;;;;;;;27.05;34.54;100185.75;6191020;23;19963;-75
2021/08/15 11:05:02;;;;;;;2.63;1.55;;;;;;;26.74;36.17;100195.44;6191516;23;20020;-74
2021/08/15 11:07:41;;;;;;;2.30;1.70;;;;;;;27.84;35.10;100194.13;6191892;23;20024;-75
2021/08/15 11:10:09;;;;;;;3.72;1.70;;;;;;;28.93;32.10;100189.91;6192201;23;20486;-74
2021/08/15 11:12:35;;;;;;;4.68;2.10;;;;;;;29.32;30.36;100177.97;6163474;23;20005;-75
2021/08/15 11:15:09;;;;;;;1.92;1.70;;;;;;;29.36;30.40;100185.22;6190876;23;20009;-76
2021/08/15 11:17:38;;;;;;;5.50;1.60;;;;;;;28.77;31.08;100184.63;6191573;23;20001;-75
2021/08/15 11:20:29;;;;;;;2.53;1.65;;;;;;;28.66;32.45;100167.72;6189498;23;20250;-73
2021/08/15 11:23:12;;;;;;;1.75;1.35;;;;;;;29.45;29.94;100164.31;6187865;23;20335;-74
2021/08/15 11:25:37;;;;;;;4.07;1.63;;;;;;;29.83;29.50;100161.91;6166439;23;20323;-75
2021/08/15 11:28:03;;;;;;;2.25;1.40;;;;;;;30.87;28.50;100157.94;6159678;23;20005;-77
2021/08/15 11:30:29;;;;;;;2.72;1.98;;;;;;;31.54;27.03;100153.06;6190274;23;20028;-76
2021/08/15 11:32:59;;;;;;;2.05;1.77;;;;;;;32.05;27.14;100153.38;6161709;23;20009;-76
2021/08/15 11:35:44;;;;;;;2.53;1.75;;;;;;;32.67;25.84;100159.19;6164555;23;20021;-75
2021/08/15 11:38:15;;;;;;;2.57;1.27;;;;;;;33.14;24.64;100147.97;6161772;23;20013;-74
2021/08/15 11:40:48;;;;;;;12.43;1.70;;;;;;;33.50;23.55;100153.09;6191903;23;20712;-74
2021/08/15 11:43:17;;;;;;;1.70;1.10;;;;;;;32.95;23.56;100152.31;6189893;23;20042;-78
2021/08/15 11:45:46;;;;;;;5.55;1.13;;;;;;;31.80;24.96;100154.44;6191256;23;20005;-75
2021/08/15 11:48:13;;;;;;;2.30;1.30;;;;;;;31.44;24.92;100156.75;6165006;23;20058;-76
2021/08/15 11:50:44;;;;;;;1.90;1.20;;;;;;;30.43;26.77;100149.69;6164504;23;20005;-75
2021/08/15 11:53:37;;;;;;;4.28;2.15;;;;;;;29.26;28.32;100146.59;6171606;23;20033;-75
2021/08/15 11:56:08;;;;;;;3.50;1.63;;;;;;;28.52;30.02;100146.75;6166508;23;20211;-75
2021/08/15 11:58:35;;;;;;;3.10;1.30;;;;;;;27.98;31.09;100132.44;6167085;23;20064;-75
2021/08/15 12:01:06;;;;;;;4.47;1.33;;;;;;;28.04;31.99;100144.13;6142795;23;20005;-75
2021/08/15 12:03:32;;;;;;;3.42;1.80;;;;;;;28.28;30.93;100134.19;6196244;23;20016;-75
2021/08/15 12:06:02;;;;;;;3.22;1.33;;;;;;;28.51;31.99;100136.72;6166906;23;20040;-75
2021/08/15 12:08:42;;;;;;;4.18;1.73;;;;;;;29.57;28.67;100144.16;6191860;23;20009;-75
2021/08/15 12:11:24;;;;;;;2.72;1.48;;;;;;;29.84;29.01;100136.13;6162405;23;20001;-74
2021/08/15 12:13:52;;;;;;;2.03;1.85;;;;;;;30.66;27.42;100151.19;6188903;23;20021;-75
2021/08/15 12:16:22;;;;;;;5.20;1.55;;;;;;;31.53;27.39;100137.31;6162859;23;20037;-75
2021/08/15 12:18:48;;;;;;;5.82;1.73;;;;;;;31.94;25.77;100136.53;6162545;23;20391;-72
2021/08/15 12:21:18;;;;;;;3.75;2.13;;;;;;;31.74;26.20;100139.16;6189286;23;20028;-75
2021/08/15 12:24:09;;;;;;;3.15;1.95;;;;;;;31.19;26.83;100125.91;6183250;23;20028;-77
2021/08/15 12:26:57;;;;;;;1.77;1.10;;;;;;;30.37;27.58;100123.06;6187451;23;20013;-75
2021/08/15 12:29:27;;;;;;;1.58;1.27;;;;;;;29.82;29.18;100116.03;6187879;23;20464;-77
2021/08/15 12:32:23;;;;;;;3.65;1.85;;;;;;;29.65;29.46;100123.25;6164476;23;20013;-76
2021/08/15 12:34:57;;;;;;;7.43;2.38;;;;;;;29.17;30.58;100113.16;6186303;23;20467;-75
2021/08/15 12:37:28;;;;;;;4.93;1.83;;;;;;;28.99;30.77;100121.59;6187700;23;20337;-75
2021/08/15 12:40:08;;;;;;;4.93;1.38;;;;;;;28.86;30.93;100111.94;6187987;23;20001;-75
2021/08/15 12:42:35;;;;;;;8.20;2.42;;;;;;;28.78;31.21;100113.13;6189992;23;20009;-74
2021/08/15 12:45:11;;;;;;;1.67;1.33;;;;;;;28.68;31.50;100125.94;6187338;23;19993;-77
2021/08/15 12:47:48;;;;;;;3.05;1.50;;;;;;;28.28;31.79;100120.13;6187429;23;20067;-76
2021/08/15 12:50:20;;;;;;;3.42;1.95;;;;;;;28.24;32.53;100098.84;6160587;23;20005;-77
2021/08/15 12:52:54;;;;;;;1.38;1.27;;;;;;;28.82;32.75;100111.13;6186528;23;20005;-75
2021/08/15 12:55:29;;;;;;;7.72;1.75;;;;;;;29.21;31.14;100111.16;6187507;23;20069;-75
2021/08/15 12:57:58;;;;;;;3.85;1.27;;;;;;;29.18;30.82;100105.53;6184637;23;20009;-74
2021/08/15 13:00:26;;;;;;;4.75;1.50;;;;;;;28.61;32.03;100107.06;6187115;23;20001;-75
2021/08/15 13:02:53;;;;;;;4.18;1.55;;;;;;;28.11;32.26;100106.81;6189100;23;20076;-76
2021/08/15 13:05:22;;;;;;;1.45;1.13;;;;;;;28.24;33.05;100098.84;6140704;23;20005;-76
2021/08/15 13:07:48;;;;;;;2.58;1.15;;;;;;;28.38;32.59;100094.06;6164899;23;20013;-74
2021/08/15 13:10:15;;;;;;;1.63;1.17;;;;;;;28.30;32.43;100097.25;6159349;23;20001;-75
2021/08/15 13:12:40;;;;;;;2.45;1.20;;;;;;;27.96;33.58;100101.06;6165506;23;20032;-76
2021/08/15 13:15:08;;;;;;;3.00;1.42;;;;;;;27.94;34.36;100114.72;6140842;23;20347;-75
2021/08/15 13:17:36;;;;;;;4.32;1.63;;;;;;;27.60;34.70;100100.88;6191819;23;19992;-76
2021/08/15 13:20:02;;;;;;;3.03;1.20;;;;;;;27.17;35.47;100100.50;6162189;23;20181;-74
2021/08/15 13:22:27;;;;;;;3.85;1.67;;;;;;;27.07;36.46;100112.41;6192094;23;20066;-75
2021/08/15 13:24:59;;;;;;;4.57;1.48;;;;;;;27.25;35.96;100099.38;6189582;23;20012;-76
2021/08/15 13:27:24;;;;;;;4.72;1.85;;;;;;;27.36;35.73;100096.66;6162814;23;20328;-76
2021/08/15 13:29:50;;;;;;;5.00;1.13;;;;;;;27.21;36.23;100092.13;6191231;23;20008;-75
2021/08/15 13:32:16;;;;;;;3.45;0.98;;;;;;;27.14;36.04;100090.84;6186704;23;20009;-75
2021/08/15 13:34:44;;;;;;;1.58;0.73;;;;;;;27.04;36.34;100085.13;6191213;23;20009;-74
2021/08/15 13:37:12;;;;;;;6.07;0.70;;;;;;;27.19;36.80;100070.06;6162284;23;20009;-76
2021/08/15 13:39:39;;;;;;;2.65;1.00;;;;;;;28.29;35.58;100082.41;6163277;23;20028;-76
2021/08/15 13:42:05;;;;;;;1.52;0.63;;;;;;;29.00;34.33;100078.19;6161566;23;20008;-75
2021/08/15 13:44:31;;;;;;;0.73;0.50;;;;;;;28.78;34.00;100076.53;6191386;23;20061;-74
2021/08/15 13:46:56;;;;;;;2.38;0.70;;;;;;;28.07;34.56;100061.03;6163938;23;20523;-75
2021/08/15 13:49:21;;;;;;;1.17;0.50;;;;;;;27.69;35.34;100067.63;6164515;23;20009;-75
2021/08/15 13:51:47;;;;;;;0.93;0.30;;;;;;;27.45;36.06;100046.63;6137015;23;20019;-75
2021/08/15 13:54:12;;;;;;;1.38;1.02;;;;;;;27.75;36.14;100053.22;6159663;23;20020;-75
2021/08/15 13:56:38;;;;;;;4.93;0.57;;;;;;;28.52;35.23;100053.16;6189445;23;20400;-75
2021/08/15 13:59:03;;;;;;;2.88;0.45;;;;;;;29.35;32.74;100059.72;6187485;23;20420;-76
2021/08/15 14:01:29;;;;;;;0.57;0.32;;;;;;;30.08;32.63;100066.81;6186859;23;20055;-75
2021/08/15 14:03:55;;;;;;;0.95;0.40;;;;;;;30.76;30.85;100065.66;6164990;23;20013;-75
2021/08/15 14:06:21;;;;;;;1.27;0.30;;;;;;;31.31;30.40;100068.91;6186795;23;20471;-75
2021/08/15 14:08:47;;;;;;;0.75;0.45;;;;;;;31.83;29.59;100074.50;6189923;23;19996;-76
2021/08/15 14:11:13;;;;;;;2.85;0.57;;;;;;;32.44;28.28;100061.63;6110301;23;20009;-76
2021/08/15 14:13:38;;;;;;;1.13;0.50;;;;;;;32.67;27.00;100063.75;6162406;23;20012;-77
2021/08/15 14:16:07;;;;;;;0.77;0.70;;;;;;;32.07;28.05;100065.31;6189928;23;20016;-74
2021/08/15 14:18:32;;;;;;;0.75;0.45;;;;;;;31.80;28.54;100057.56;6158624;23;20059;-76
2021/08/15 14:20:58;;;;;;;2.55;0.60;;;;;;;31.11;29.50;100061.00;6194739;23;20081;-75
2021/08/15 14:23:24;;;;;;;5.53;0.60;;;;;;;30.06;30.51;100052.31;6195172;23;20009;-75
2021/08/15 14:25:50;;;;;;;2.40;0.73;;;;;;;30.13;31.35;100051.50;6192181;23;20420;-75
2021/08/15 14:28:16;;;;;;;1.33;0.40;;;;;;;30.55;31.54;100038.41;6139241;23;20000;-75
2021/08/15 14:30:42;;;;;;;0.70;0.40;;;;;;;31.42;29.52;100044.19;6190924;23;20001;-75
2021/08/15 14:33:07;;;;;;;0.38;0.38;;;;;;;32.25;28.78;100034.03;6116488;23;20004;-75
2021/08/15 14:35:33;;;;;;;1.08;0.30;;;;;;;33.20;27.46;100054.81;6163385;23;20016;-75
2021/08/15 14:38:06;;;;;;;0.68;0.47;;;;;;;33.48;26.26;100025.19;6162356;23;20020;-75
2021/08/15 14:40:32;;;;;;;0.50;0.30;;;;;;;33.65;26.11;100023.25;6118732;23;20001;-76
2021/08/15 14:42:57;;;;;;;0.50;0.30;;;;;;;33.67;25.46;100014.31;6139071;23;20008;-75
2021/08/15 14:45:23;;;;;;;0.93;0.30;;;;;;;34.06;25.50;100024.09;6167423;23;20004;-76
2021/08/15 14:47:49;;;;;;;1.15;0.52;;;;;;;34.57;24.75;100024.59;6138381;23;20009;-75
2021/08/15 14:50:50;;;;;;;;;;;;;;;;;;;;;
2021/08/15 17:42:26;;;;;;;3.53;1.23;;;;;;;20.61;57.61;99957.91;5957908;24;20016;-73
2021/08/15 17:55:54;;;;;;;2.53;0.60;;;;;;;20.26;58.72;99963.88;5799740;24;20050;-73
2021/08/15 17:58:20;;;;;;;1.17;0.40;;;;;;;20.21;58.82;99953.00;5838146;23;20012;-72
2021/08/15 18:00:48;;;;;;;8.00;0.85;;;;;;;20.27;59.28;99965.50;6007470;23;20025;-76
2021/08/15 18:03:18;;;;;;;4.57;0.75;;;;;;;20.34;58.63;99968.53;6021470;23;20048;-75
2021/08/15 18:06:11;;;;;;;2.85;0.63;;;;;;;20.30;58.58;99975.91;6022083;23;20007;-74
2021/08/15 18:08:38;;;;;;;4.35;0.90;;;;;;;20.14;59.23;99963.84;6045253;23;20084;-75
2021/08/15 18:11:27;;;;;;;6.18;0.73;;;;;;;20.20;58.95;99963.28;6024280;23;20038;-75
2021/08/15 18:14:00;;;;;;;2.22;0.60;;;;;;;20.16;59.62;99967.88;6133265;23;20018;-75
2021/08/15 18:16:30;;;;;;;2.75;0.82;;;;;;;20.13;59.46;99959.44;6157850;23;20005;-75
2021/08/15 18:18:57;;;;;;;5.15;1.00;;;;;;;20.08;59.83;99962.41;6168223;23;20013;-75
2021/08/15 18:21:25;;;;;;;3.22;0.55;;;;;;;20.01;60.24;99958.22;6168201;23;20000;-76
2021/08/15 18:23:55;;;;;;;3.13;0.70;;;;;;;19.90;60.42;99939.56;6119628;23;20016;-77
2021/08/15 18:26:26;;;;;;;3.47;0.52;;;;;;;20.03;59.83;99949.56;6144287;23;20040;-75
2021/08/15 18:28:55;;;;;;;0.50;0.30;;;;;;;20.12;59.73;99955.03;6145469;23;20483;-78
2021/08/15 18:31:23;;;;;;;1.60;0.63;;;;;;;20.18;60.05;99967.53;6140222;23;20025;-76
2021/08/15 18:33:51;;;;;;;5.57;1.02;;;;;;;20.07;59.56;99949.72;6116446;23;20013;-77
2021/08/15 18:36:19;;;;;;;1.55;0.68;;;;;;;20.06;59.69;99965.53;6119292;23;20017;-77
2021/08/15 18:38:49;;;;;;;2.35;0.63;;;;;;;20.00;59.56;99956.59;6170731;23;20011;-80
2021/08/15 18:41:47;;;;;;;;;;;;;;;;;;;;;
2021/08/15 18:59:00;;;;;;;0.93;0.82;;;;;;;19.16;61.89;99939.97;6056883;23;20019;-78
2021/08/15 19:24:04;;;;;;;;;;;;;;;;;;;;;
2021/08/15 19:30:18;;;;;;;1.33;0.82;;;;;;;19.12;63.83;100006.31;5804833;24;20015;-74
2021/08/15 19:33:33;;;;;;;1.38;0.40;;;;;;;19.15;63.33;100004.84;5861320;24;20037;-73
2021/08/15 19:36:06;;;;;;;1.42;0.47;;;;;;;19.06;63.81;99998.53;5918370;24;20023;-73
2021/08/15 19:38:36;;;;;;;0.70;0.43;;;;;;;19.12;64.13;100013.84;5974750;24;20076;-75
2021/08/15 20:11:21;;;;;;;;;;;;;;;;;;;;;
2021/08/15 20:13:49;;;;;;;2.25;0.55;;;;;;;19.09;64.71;100042.22;6190129;23;20033;-74
2021/08/15 20:16:16;;;;;;;0.75;0.60;;;;;;;19.11;64.75;100048.22;6143632;23;20009;-75
2021/08/15 20:18:42;;;;;;;1.23;0.60;;;;;;;19.13;64.63;100054.25;6144050;23;20017;-74
2021/08/15 20:21:10;;;;;;;7.50;0.70;;;;;;;19.05;65.05;100038.47;6170095;23;20007;-74
2021/08/15 20:23:37;;;;;;;4.43;1.25;;;;;;;19.11;65.34;100053.78;6143941;23;20068;-76